Time;durP1;ratioP1;P1;durP2;ratioP2;P2;SDS_P1;SDS_P2;PMS_P1;PMS_P2;Temp;Humidity;BMP_temperature;BMP_pressure;BME280_temperature;BME280_humidity;BME280_pressure;Samples;Min_cycle;Max_cycle;Signal;HPM_P1;HPM_P2
2021/10/31 00:00:06;;;;;;;20.33;9.38;;;11.40;99.90;;;;;;5073198;28;25104;-74
2021/10/31 00:02:32;;;;;;;18.17;8.30;;;11.40;99.90;;;;;;5072185;28;25099;-75
2021/10/31 00:04:58;;;;;;;18.50;8.95;;;11.40;99.90;;;;;;5068588;28;25067;-77
2021/10/31 00:07:23;;;;;;;20.90;8.15;;;11.40;99.90;;;;;;5076337;28;25079;-73
2021/10/31 00:09:49;;;;;;;19.35;8.48;;;11.40;99.90;;;;;;5067102;28;25061;-77
2021/10/31 00:12:15;;;;;;;18.23;8.55;;;11.30;99.90;;;;;;5083060;28;25140;-75
2021/10/31 00:14:41;;;;;;;18.30;8.18;;;11.30;99.90;;;;;;5063375;28;25076;-77
2021/10/31 00:17:13;;;;;;;20.55;8.27;;;11.30;99.90;;;;;;5081885;28;25076;-75
2021/10/31 00:19:41;;;;;;;21.42;9.27;;;11.30;99.90;;;;;;5077419;28;25054;-78
2021/10/31 00:22:08;;;;;;;24.90;9.15;;;11.30;99.90;;;;;;5089776;28;25065;-73
2021/10/31 00:24:35;;;;;;;20.55;8.93;;;11.30;99.90;;;;;;5076659;28;25104;-76
2021/10/31 00:27:00;;;;;;;29.77;9.80;;;11.40;99.90;;;;;;5071379;28;25063;-76
2021/10/31 00:29:26;;;;;;;25.40;9.77;;;11.30;99.90;;;;;;5073470;28;25073;-74
2021/10/31 00:31:51;;;;;;;16.42;9.30;;;11.30;99.90;;;;;;5072863;28;25075;-74
2021/10/31 00:34:17;;;;;;;17.40;7.90;;;11.20;99.90;;;;;;5075305;28;25111;-74
2021/10/31 00:36:43;;;;;;;19.10;8.48;;;11.20;99.90;;;;;;5068770;28;25074;-77
2021/10/31 00:39:08;;;;;;;22.42;9.43;;;11.20;99.90;;;;;;5067644;28;25097;-75
2021/10/31 00:41:34;;;;;;;18.75;7.32;;;11.20;99.90;;;;;;5070342;28;25077;-75
2021/10/31 00:44:00;;;;;;;14.63;6.97;;;11.20;99.90;;;;;;5048534;28;25059;-75
2021/10/31 00:46:26;;;;;;;18.85;8.50;;;11.20;99.90;;;;;;5071911;28;25150;-74
2021/10/31 00:48:52;;;;;;;20.30;9.95;;;11.20;99.90;;;;;;5069278;28;25164;-75
2021/10/31 00:51:18;;;;;;;19.83;7.90;;;11.20;99.90;;;;;;5070922;28;25067;-75
2021/10/31 00:53:44;;;;;;;24.85;7.55;;;11.20;99.90;;;;;;5051405;28;25108;-75
2021/10/31 00:56:10;;;;;;;17.17;7.82;;;11.10;99.90;;;;;;5062931;28;25063;-74
2021/10/31 00:58:37;;;;;;;23.10;8.65;;;11.10;99.90;;;;;;5064560;28;25137;-77
2021/10/31 01:01:03;;;;;;;27.17;9.75;;;11.20;99.90;;;;;;5065391;28;25095;-76
2021/10/31 01:03:29;;;;;;;21.30;9.77;;;11.10;99.90;;;;;;5067726;28;25067;-74
2021/10/31 01:06:13;;;;;;;22.08;9.95;;;11.10;99.90;;;;;;5065074;28;25083;-74
2021/10/31 01:08:49;;;;;;;25.83;10.05;;;11.10;99.90;;;;;;5069621;28;25172;-74
2021/10/31 01:11:49;;;;;;;27.63;11.40;;;11.10;99.90;;;;;;5064422;28;25081;-74
2021/10/31 01:14:33;;;;;;;25.42;11.98;;;11.00;99.90;;;;;;5060820;28;25109;-73
2021/10/31 01:17:30;;;;;;;24.05;11.13;;;10.90;99.90;;;;;;5037250;28;25162;-74
2021/10/31 01:20:22;;;;;;;24.60;12.27;;;10.90;99.90;;;;;;5065107;28;25171;-76
2021/10/31 01:23:25;;;;;;;28.13;13.77;;;10.90;99.90;;;;;;5069147;28;25059;-76
2021/10/31 01:26:03;;;;;;;31.40;15.90;;;10.80;99.90;;;;;;5065512;28;25088;-75
2021/10/31 01:28:51;;;;;;;24.05;15.77;;;10.80;99.90;;;;;;5067162;28;25076;-75
2021/10/31 01:31:39;;;;;;;31.17;18.65;;;10.70;99.90;;;;;;5061749;28;25097;-74
2021/10/31 01:34:37;;;;;;;30.27;18.42;;;10.70;99.90;;;;;;5062109;28;25066;-75
2021/10/31 01:37:14;;;;;;;29.08;18.60;;;10.70;99.90;;;;;;5054990;28;25056;-74
2021/10/31 01:39:58;;;;;;;34.17;21.40;;;10.70;99.90;;;;;;5068569;28;25135;-76
2021/10/31 01:42:36;;;;;;;22.17;17.50;;;10.60;99.90;;;;;;5070055;28;24707;-76
2021/10/31 01:45:08;;;;;;;33.63;20.90;;;10.70;99.90;;;;;;5069496;28;25063;-76
2021/10/31 01:48:02;;;;;;;39.38;23.10;;;10.70;99.90;;;;;;5074177;28;25094;-74
2021/10/31 01:50:43;;;;;;;35.95;22.60;;;10.60;99.90;;;;;;5072383;28;25096;-75
2021/10/31 01:53:28;;;;;;;35.08;22.63;;;10.60;99.90;;;;;;5086979;28;25075;-75
2021/10/31 01:56:02;;;;;;;41.42;26.77;;;10.60;99.90;;;;;;5072436;28;25125;-75
2021/10/31 01:58:35;;;;;;;32.88;22.25;;;10.50;99.90;;;;;;5053607;28;25131;-75
2021/10/31 02:01:02;;;;;;;42.75;23.50;;;10.50;99.90;;;;;;5075019;28;25058;-73
2021/10/31 02:03:33;;;;;;;35.83;22.10;;;10.50;99.90;;;;;;5085103;28;25072;-75
2021/10/31 02:06:00;;;;;;;36.10;22.10;;;10.40;99.90;;;;;;5071347;28;25100;-74
2021/10/31 02:08:27;;;;;;;30.40;22.48;;;10.30;99.90;;;;;;5046811;28;25084;-74
2021/10/31 02:10:56;;;;;;;25.05;16.90;;;10.40;99.90;;;;;;5080930;28;25053;-76
2021/10/31 02:13:27;;;;;;;33.72;21.48;;;10.50;99.90;;;;;;5078056;28;25054;-75
2021/10/31 02:15:54;;;;;;;36.30;22.33;;;10.40;99.90;;;;;;5059920;28;25154;-76
2021/10/31 02:18:26;;;;;;;32.08;21.08;;;10.40;99.90;;;;;;5057981;28;25071;-76
2021/10/31 02:20:57;;;;;;;47.35;26.13;;;10.40;99.90;;;;;;5072150;28;25063;-74
2021/10/31 02:23:24;;;;;;;31.13;19.13;;;10.30;99.90;;;;;;5045763;28;25058;-75
2021/10/31 02:25:51;;;;;;;34.40;21.48;;;10.40;99.90;;;;;;5069072;28;25118;-76
2021/10/31 02:28:17;;;;;;;31.38;18.58;;;10.40;99.90;;;;;;5066492;28;25061;-75
2021/10/31 02:30:43;;;;;;;33.42;22.77;;;10.40;99.90;;;;;;5066398;28;25078;-75
2021/10/31 02:33:10;;;;;;;37.63;20.73;;;10.30;99.90;;;;;;5064242;28;25162;-76
2021/10/31 02:35:38;;;;;;;37.28;22.55;;;10.30;99.90;;;;;;5069012;28;25053;-75
2021/10/31 02:38:04;;;;;;;37.20;22.08;;;10.30;99.90;;;;;;5068083;28;25079;-75
2021/10/31 02:40:35;;;;;;;33.42;20.92;;;10.30;99.90;;;;;;5071559;28;25066;-72
2021/10/31 02:43:05;;;;;;;33.42;20.50;;;10.30;99.90;;;;;;5081471;28;25084;-78
2021/10/31 02:45:31;;;;;;;37.08;21.52;;;10.30;99.90;;;;;;5070697;28;25108;-75
2021/10/31 02:48:11;;;;;;;41.53;23.60;;;10.30;99.90;;;;;;5076337;28;25157;-76
2021/10/31 02:50:41;;;;;;;34.55;22.15;;;10.30;99.90;;;;;;5064349;28;25158;-76
2021/10/31 02:53:37;;;;;;;35.20;21.00;;;10.30;99.90;;;;;;5068037;28;25075;-75
2021/10/31 02:56:10;;;;;;;21.55;16.20;;;10.20;99.90;;;;;;5064644;28;25066;-74
2021/10/31 02:58:45;;;;;;;32.25;18.58;;;10.30;99.90;;;;;;5066873;28;25063;-75
2021/10/31 03:01:12;;;;;;;39.83;22.33;;;10.30;99.90;;;;;;5058703;28;25100;-75
2021/10/31 03:03:40;;;;;;;35.60;20.55;;;10.30;99.90;;;;;;5065990;28;25073;-76
2021/10/31 03:06:06;;;;;;;39.88;22.80;;;10.30;99.90;;;;;;5067973;28;25142;-75
2021/10/31 03:08:33;;;;;;;28.48;20.17;;;10.30;99.90;;;;;;5051095;28;25088;-75
2021/10/31 03:11:03;;;;;;;46.65;23.45;;;10.30;99.90;;;;;;5061611;28;25059;-74
2021/10/31 03:13:29;;;;;;;33.28;20.77;;;10.20;99.90;;;;;;5069774;28;25077;-76
2021/10/31 03:15:56;;;;;;;45.45;23.50;;;10.20;99.90;;;;;;5064634;28;25072;-75
2021/10/31 03:18:22;;;;;;;40.53;23.77;;;10.20;99.90;;;;;;5069147;28;25068;-74
2021/10/31 03:20:48;;;;;;;38.85;22.40;;;10.10;99.90;;;;;;5068052;28;25173;-73
2021/10/31 03:23:16;;;;;;;29.17;21.10;;;10.10;99.90;;;;;;5062135;28;25058;-75
2021/10/31 03:25:42;;;;;;;28.55;19.73;;;10.10;99.90;;;;;;5073930;28;25130;-75
2021/10/31 03:28:07;;;;;;;38.15;22.67;;;10.10;99.90;;;;;;5070763;28;25066;-75
2021/10/31 03:30:33;;;;;;;42.60;23.65;;;10.10;99.90;;;;;;5070653;28;25061;-73
2021/10/31 03:32:59;;;;;;;43.92;25.42;;;10.00;99.90;;;;;;5072001;28;25067;-74
2021/10/31 03:35:27;;;;;;;35.58;22.25;;;10.10;99.90;;;;;;5082207;28;25065;-77
2021/10/31 03:37:54;;;;;;;36.58;24.25;;;10.10;99.90;;;;;;5084400;28;25054;-77
2021/10/31 03:40:20;;;;;;;45.20;22.63;;;10.10;99.90;;;;;;5059683;28;25051;-78
2021/10/31 03:42:45;;;;;;;38.97;21.90;;;10.10;99.90;;;;;;5071121;28;25073;-78
2021/10/31 03:45:12;;;;;;;32.78;19.65;;;10.00;99.90;;;;;;5071255;28;25067;-75
2021/10/31 03:47:46;;;;;;;36.35;21.77;;;10.10;99.90;;;;;;5070203;28;25057;-75
2021/10/31 03:50:12;;;;;;;32.95;19.27;;;10.10;99.90;;;;;;5048135;28;25137;-75
2021/10/31 03:52:38;;;;;;;35.90;22.13;;;10.10;99.90;;;;;;5050743;28;25089;-76
2021/10/31 03:55:04;;;;;;;31.70;19.52;;;10.00;99.90;;;;;;5046865;28;25104;-79
2021/10/31 03:57:29;;;;;;;30.73;20.08;;;10.00;99.90;;;;;;5070631;28;25058;-76
2021/10/31 03:59:55;;;;;;;39.67;22.65;;;10.00;99.90;;;;;;5072233;28;25056;-76
2021/10/31 04:02:22;;;;;;;34.88;21.40;;;10.00;99.90;;;;;;5053716;28;25153;-73
2021/10/31 04:04:48;;;;;;;34.47;20.83;;;10.00;99.90;;;;;;5076847;28;25063;-76
2021/10/31 04:07:14;;;;;;;32.72;21.65;;;10.00;99.90;;;;;;5083096;28;25059;-75
2021/10/31 04:09:40;;;;;;;35.72;21.63;;;10.00;99.90;;;;;;5077006;28;25147;-74
2021/10/31 04:12:07;;;;;;;32.70;21.17;;;10.00;99.90;;;;;;5074525;28;25048;-73
2021/10/31 04:14:33;;;;;;;35.78;22.38;;;10.00;99.90;;;;;;5057744;28;25082;-77
2021/10/31 04:17:02;;;;;;;39.33;21.63;;;9.90;99.90;;;;;;5070082;28;25070;-76
2021/10/31 04:19:28;;;;;;;37.10;21.60;;;9.90;99.90;;;;;;5069584;28;25067;-77
2021/10/31 04:21:53;;;;;;;32.17;21.05;;;10.00;99.90;;;;;;5065095;28;25112;-79
2021/10/31 04:24:19;;;;;;;35.88;22.00;;;10.00;99.90;;;;;;5063079;28;25157;-74
2021/10/31 04:26:44;;;;;;;28.52;19.55;;;10.00;99.90;;;;;;5071224;28;25063;-77
2021/10/31 04:29:11;;;;;;;27.88;19.73;;;9.90;99.90;;;;;;5070550;28;25062;-77
2021/10/31 04:31:36;;;;;;;33.17;19.63;;;10.00;99.90;;;;;;5064731;28;25083;-75
2021/10/31 04:34:02;;;;;;;34.55;19.95;;;10.10;99.90;;;;;;5068735;28;25087;-75
2021/10/31 04:36:28;;;;;;;34.75;19.70;;;10.00;99.90;;;;;;5071104;28;25065;-73
2021/10/31 04:38:55;;;;;;;31.70;19.05;;;10.00;99.90;;;;;;5050364;28;25073;-74
2021/10/31 04:41:25;;;;;;;27.30;16.77;;;10.00;99.90;;;;;;5070121;28;25135;-76
2021/10/31 04:43:50;;;;;;;35.75;18.70;;;10.00;99.90;;;;;;5068922;28;25053;-76
2021/10/31 04:46:16;;;;;;;28.38;18.17;;;10.00;99.90;;;;;;5070261;28;25154;-75
2021/10/31 04:48:42;;;;;;;28.30;18.92;;;10.00;99.90;;;;;;5070481;28;25140;-75
2021/10/31 04:51:07;;;;;;;31.48;18.08;;;10.00;99.90;;;;;;5064623;28;25155;-75
2021/10/31 04:53:34;;;;;;;30.52;18.58;;;10.00;99.90;;;;;;5069469;28;25537;-77
2021/10/31 04:56:00;;;;;;;38.92;19.63;;;10.00;99.90;;;;;;5070453;28;25074;-75
2021/10/31 04:58:32;;;;;;;32.05;17.67;;;10.00;99.90;;;;;;5069189;28;25158;-76
2021/10/31 05:00:59;;;;;;;30.05;19.98;;;10.00;99.90;;;;;;5066750;28;25096;-75
2021/10/31 05:03:25;;;;;;;31.45;19.50;;;10.00;99.90;;;;;;5080672;28;25068;-76
2021/10/31 05:05:51;;;;;;;35.90;20.63;;;10.00;99.90;;;;;;5088697;28;25094;-77
2021/10/31 05:08:16;;;;;;;36.05;21.10;;;9.90;99.90;;;;;;5078997;28;25080;-72
2021/10/31 05:10:42;;;;;;;28.98;19.48;;;10.00;99.90;;;;;;5070210;28;25067;-74
2021/10/31 05:13:09;;;;;;;26.88;18.10;;;9.90;99.90;;;;;;5065998;28;25066;-75
2021/10/31 05:15:34;;;;;;;40.60;21.67;;;10.00;99.90;;;;;;5068448;28;25068;-76
2021/10/31 05:18:00;;;;;;;36.85;22.27;;;9.90;99.90;;;;;;5063771;28;25066;-74
2021/10/31 05:20:26;;;;;;;36.58;21.30;;;10.00;99.90;;;;;;5067161;28;25054;-74
2021/10/31 05:22:51;;;;;;;40.22;23.48;;;10.00;99.90;;;;;;5069739;28;25060;-75
2021/10/31 05:25:17;;;;;;;45.17;22.90;;;9.90;99.90;;;;;;5074959;28;25059;-75
2021/10/31 05:27:43;;;;;;;53.00;24.40;;;9.80;99.90;;;;;;5044139;28;25072;-75
2021/10/31 05:30:10;;;;;;;37.20;21.90;;;9.80;99.90;;;;;;5072395;28;25081;-75
2021/10/31 05:32:38;;;;;;;39.10;24.40;;;9.80;99.90;;;;;;5071139;28;25067;-75
2021/10/31 05:35:07;;;;;;;47.13;25.77;;;9.80;99.90;;;;;;5051013;28;25065;-75
2021/10/31 05:37:40;;;;;;;34.38;21.35;;;9.80;99.90;;;;;;5081120;28;25065;-74
2021/10/31 05:40:10;;;;;;;41.47;24.75;;;9.80;99.90;;;;;;5077417;28;25148;-73
2021/10/31 05:42:38;;;;;;;46.72;25.58;;;9.80;99.90;;;;;;5070173;28;25119;-74
2021/10/31 05:45:07;;;;;;;48.13;26.58;;;9.90;99.90;;;;;;5082468;28;25156;-74
2021/10/31 05:47:35;;;;;;;33.65;21.52;;;9.90;99.90;;;;;;5069705;28;25101;-74
2021/10/31 05:50:00;;;;;;;42.40;24.38;;;9.90;99.90;;;;;;5064222;28;25102;-76
2021/10/31 05:52:26;;;;;;;43.67;24.77;;;9.90;99.90;;;;;;5068734;28;25080;-77
2021/10/31 05:54:52;;;;;;;38.38;23.20;;;9.90;99.90;;;;;;5071792;28;25063;-75
2021/10/31 05:57:17;;;;;;;31.33;19.85;;;9.90;99.90;;;;;;5066318;28;25043;-75
2021/10/31 05:59:43;;;;;;;43.40;24.33;;;9.90;99.90;;;;;;5069003;28;25080;-73
2021/10/31 06:02:09;;;;;;;26.17;19.92;;;9.90;99.90;;;;;;5066523;28;25077;-76
2021/10/31 06:04:35;;;;;;;30.05;21.38;;;10.00;99.90;;;;;;5069949;28;25057;-75
2021/10/31 06:07:01;;;;;;;38.78;22.13;;;10.00;99.90;;;;;;5065722;28;25119;-75
2021/10/31 06:09:26;;;;;;;30.33;20.25;;;10.00;99.90;;;;;;5081515;28;25095;-77
2021/10/31 06:12:04;;;;;;;36.17;21.60;;;9.90;99.90;;;;;;5091847;28;25082;-77
2021/10/31 06:14:32;;;;;;;31.20;21.25;;;10.00;99.90;;;;;;5095006;28;25063;-76
2021/10/31 06:16:58;;;;;;;35.22;21.48;;;9.90;99.90;;;;;;5071089;28;25071;-75
2021/10/31 06:19:36;;;;;;;32.38;19.85;;;9.90;99.90;;;;;;5074006;28;25073;-75
2021/10/31 06:22:03;;;;;;;36.38;20.27;;;9.90;99.90;;;;;;5071889;28;25048;-76
2021/10/31 06:24:29;;;;;;;26.80;17.90;;;9.90;99.90;;;;;;5067329;28;25056;-77
2021/10/31 06:26:54;;;;;;;32.90;21.88;;;9.90;99.90;;;;;;5071506;28;25113;-76
2021/10/31 06:29:23;;;;;;;33.00;21.42;;;9.90;99.90;;;;;;5073476;28;25068;-76
2021/10/31 06:31:51;;;;;;;25.05;18.25;;;9.90;99.90;;;;;;5069852;28;25063;-76
2021/10/31 06:34:17;;;;;;;23.95;19.00;;;10.00;99.90;;;;;;5069078;28;25077;-78
2021/10/31 06:36:45;;;;;;;31.65;20.33;;;9.90;99.90;;;;;;5049326;28;25144;-77
2021/10/31 06:39:11;;;;;;;35.15;22.23;;;9.90;99.90;;;;;;5068409;28;25080;-76
2021/10/31 06:41:37;;;;;;;30.52;20.85;;;9.90;99.90;;;;;;5067982;28;25069;-76
2021/10/31 06:44:03;;;;;;;33.00;22.30;;;9.90;99.90;;;;;;5049519;28;25070;-77
2021/10/31 06:46:29;;;;;;;34.53;21.40;;;9.90;99.90;;;;;;5066878;28;25090;-74
2021/10/31 06:48:56;;;;;;;31.67;21.35;;;9.90;99.90;;;;;;5065655;28;25092;-76
2021/10/31 06:51:22;;;;;;;37.00;21.65;;;9.90;99.90;;;;;;5065608;28;25055;-77
2021/10/31 06:53:49;;;;;;;33.40;20.45;;;10.00;99.90;;;;;;5068673;28;25052;-75
2021/10/31 06:56:15;;;;;;;35.90;21.65;;;10.00;99.90;;;;;;5072033;28;25108;-76
2021/10/31 06:58:41;;;;;;;28.75;20.92;;;10.00;99.90;;;;;;5073860;28;25069;-76
2021/10/31 07:01:07;;;;;;;28.50;20.05;;;10.00;99.90;;;;;;5067878;28;25060;-76
2021/10/31 07:03:32;;;;;;;30.73;21.75;;;10.00;99.90;;;;;;5067545;28;25140;-74
2021/10/31 07:06:01;;;;;;;32.17;20.63;;;10.00;99.90;;;;;;5066751;28;25074;-76
2021/10/31 07:08:28;;;;;;;28.10;19.77;;;10.10;99.90;;;;;;5067798;28;25158;-79
2021/10/31 07:10:53;;;;;;;25.75;18.52;;;10.10;99.90;;;;;;5070997;28;25146;-76
2021/10/31 07:13:21;;;;;;;24.25;19.13;;;10.10;99.90;;;;;;5068416;28;25060;-76
2021/10/31 07:15:47;;;;;;;27.20;19.75;;;10.10;99.90;;;;;;5066222;28;25066;-79
2021/10/31 07:18:14;;;;;;;32.55;19.67;;;10.10;99.90;;;;;;5077761;28;25043;-77
2021/10/31 07:20:39;;;;;;;25.75;17.67;;;10.10;99.90;;;;;;5078533;28;25079;-77
2021/10/31 07:23:05;;;;;;;30.80;18.88;;;10.20;99.90;;;;;;5085153;28;25080;-78
2021/10/31 07:25:38;;;;;;;21.02;16.92;;;10.20;99.90;;;;;;5074324;28;25053;-75
2021/10/31 07:28:04;;;;;;;23.30;18.33;;;10.30;99.90;;;;;;5071611;28;25100;-77
2021/10/31 07:30:30;;;;;;;27.75;19.83;;;10.30;99.90;;;;;;5054682;28;25075;-75
2021/10/31 07:32:59;;;;;;;26.92;17.48;;;10.30;99.90;;;;;;5069883;28;25048;-75
2021/10/31 07:35:25;;;;;;;26.85;18.13;;;10.40;99.90;;;;;;5071423;28;25084;-75
2021/10/31 07:37:53;;;;;;;24.42;17.98;;;10.40;99.90;;;;;;5068489;28;25102;-76
2021/10/31 07:40:22;;;;;;;24.60;16.88;;;10.40;99.90;;;;;;5068145;28;25077;-75
2021/10/31 07:42:49;;;;;;;26.60;17.88;;;10.40;99.90;;;;;;5068307;28;25071;-77
2021/10/31 07:45:14;;;;;;;22.13;17.13;;;10.40;99.90;;;;;;5068314;28;25050;-74
2021/10/31 07:47:41;;;;;;;19.40;16.63;;;10.40;99.90;;;;;;5067844;28;25068;-78
2021/10/31 07:50:08;;;;;;;17.42;14.63;;;10.50;99.90;;;;;;5068429;28;25095;-75
2021/10/31 07:52:35;;;;;;;22.00;16.50;;;10.50;99.90;;;;;;5070466;28;25085;-74
2021/10/31 07:55:03;;;;;;;21.95;15.60;;;10.50;99.90;;;;;;5049601;28;25196;-76
2021/10/31 07:57:34;;;;;;;18.75;15.75;;;10.50;99.90;;;;;;5068189;28;25081;-78
2021/10/31 08:00:04;;;;;;;19.25;14.77;;;10.50;99.90;;;;;;5068753;28;25072;-77
2021/10/31 08:02:29;;;;;;;21.05;15.40;;;10.60;99.90;;;;;;5067231;28;25091;-77
2021/10/31 08:04:55;;;;;;;21.92;15.75;;;10.60;99.90;;;;;;5072506;28;25110;-77
2021/10/31 08:07:28;;;;;;;23.77;14.50;;;10.60;99.90;;;;;;5066973;28;25065;-77
2021/10/31 08:09:54;;;;;;;18.77;14.80;;;10.70;99.90;;;;;;5067666;28;25112;-75
2021/10/31 08:12:19;;;;;;;19.25;13.88;;;10.70;99.90;;;;;;5071060;28;25094;-77
2021/10/31 08:14:46;;;;;;;15.70;13.27;;;10.70;99.90;;;;;;5070584;28;25057;-75
2021/10/31 08:17:13;;;;;;;16.90;13.77;;;10.70;99.90;;;;;;5072846;28;25062;-75
2021/10/31 08:19:38;;;;;;;18.05;13.65;;;10.80;99.90;;;;;;5069673;28;25096;-76
2021/10/31 08:22:04;;;;;;;17.98;14.00;;;10.80;99.90;;;;;;5073484;28;25096;-74
2021/10/31 08:24:30;;;;;;;16.15;13.20;;;10.90;99.90;;;;;;5072332;28;25079;-75
2021/10/31 08:26:56;;;;;;;17.55;12.95;;;10.90;99.90;;;;;;5065973;28;25054;-76
2021/10/31 08:29:23;;;;;;;18.98;13.48;;;11.00;99.90;;;;;;5073700;28;25067;-74
2021/10/31 08:31:53;;;;;;;18.25;13.38;;;11.00;99.90;;;;;;5047776;28;25081;-74
2021/10/31 08:34:18;;;;;;;13.25;11.45;;;11.10;99.90;;;;;;5072089;28;25048;-77
2021/10/31 08:36:44;;;;;;;18.15;12.77;;;11.10;99.90;;;;;;5059168;28;25052;-76
2021/10/31 08:39:10;;;;;;;23.30;14.45;;;11.10;99.90;;;;;;5074716;28;25154;-78
2021/10/31 08:41:37;;;;;;;15.55;12.32;;;11.20;99.90;;;;;;5066985;28;25071;-78
2021/10/31 08:44:03;;;;;;;16.75;11.75;;;11.20;99.90;;;;;;5074225;28;25159;-77
2021/10/31 08:46:33;;;;;;;19.67;12.07;;;11.30;99.90;;;;;;5076734;28;25057;-78
2021/10/31 08:48:59;;;;;;;17.90;12.38;;;11.40;99.90;;;;;;5073098;28;25064;-75
2021/10/31 08:51:33;;;;;;;13.80;11.27;;;11.40;99.90;;;;;;5059616;28;25081;-77
2021/10/31 08:54:00;;;;;;;16.30;12.07;;;11.50;99.90;;;;;;5057260;28;24888;-77
2021/10/31 08:56:30;;;;;;;11.35;10.15;;;11.50;99.90;;;;;;5077158;28;25121;-75
2021/10/31 08:58:57;;;;;;;13.35;11.15;;;11.60;99.90;;;;;;5053128;28;25073;-76
2021/10/31 09:01:23;;;;;;;11.90;9.90;;;11.60;99.90;;;;;;5076609;28;25087;-75
2021/10/31 09:03:52;;;;;;;14.07;11.32;;;11.60;99.90;;;;;;5073924;28;25067;-76
2021/10/31 09:06:18;;;;;;;11.65;10.45;;;11.70;99.90;;;;;;5072265;28;25171;-77
2021/10/31 09:08:44;;;;;;;13.57;10.63;;;11.70;99.90;;;;;;5057458;28;25141;-76
2021/10/31 09:11:11;;;;;;;12.15;9.10;;;11.70;99.90;;;;;;5081634;28;25069;-77
2021/10/31 09:13:39;;;;;;;12.27;9.98;;;11.70;99.90;;;;;;5070726;28;25094;-76
2021/10/31 09:16:04;;;;;;;13.10;10.40;;;11.80;99.90;;;;;;5053326;28;25082;-76
2021/10/31 09:18:31;;;;;;;13.68;9.05;;;11.80;99.90;;;;;;5074113;28;25062;-77
2021/10/31 09:20:57;;;;;;;13.43;8.30;;;11.90;99.90;;;;;;5073107;28;25153;-75
2021/10/31 09:23:24;;;;;;;10.35;8.80;;;12.00;99.90;;;;;;5054883;28;25088;-78
2021/10/31 09:25:50;;;;;;;11.57;8.32;;;12.00;99.90;;;;;;5050415;28;25103;-77
2021/10/31 09:28:17;;;;;;;10.07;8.00;;;12.00;99.90;;;;;;5066383;28;25050;-76
2021/10/31 09:30:46;;;;;;;9.18;8.18;;;12.00;99.90;;;;;;5070495;28;25074;-74
2021/10/31 09:33:12;;;;;;;9.82;7.88;;;12.10;99.90;;;;;;5081643;28;25184;-76
2021/10/31 09:35:52;;;;;;;11.40;7.60;;;12.00;99.90;;;;;;5051479;28;25056;-76
2021/10/31 09:38:19;;;;;;;10.95;7.30;;;12.10;99.90;;;;;;5085547;28;25099;-77
2021/10/31 09:40:47;;;;;;;9.05;7.13;;;12.10;99.90;;;;;;5057248;28;25104;-75
2021/10/31 09:43:15;;;;;;;8.90;7.28;;;12.10;99.90;;;;;;5080930;28;25055;-74
2021/10/31 09:45:42;;;;;;;17.08;6.95;;;12.30;99.90;;;;;;5081793;28;25101;-75
2021/10/31 09:48:10;;;;;;;8.30;7.15;;;12.40;99.90;;;;;;5076728;28;25079;-75
2021/10/31 09:50:48;;;;;;;7.55;6.20;;;12.50;99.90;;;;;;5070970;28;25076;-76
2021/10/31 09:53:19;;;;;;;5.22;4.70;;;12.60;99.90;;;;;;5066514;28;25061;-76
2021/10/31 09:55:47;;;;;;;6.75;5.13;;;12.70;99.90;;;;;;5066642;28;25071;-78
2021/10/31 09:58:19;;;;;;;7.45;4.80;;;12.70;99.90;;;;;;5066967;28;25062;-74
2021/10/31 10:00:49;;;;;;;5.78;5.03;;;12.80;99.90;;;;;;5049829;28;25146;-77
2021/10/31 10:06:15;;;;;;;5.38;4.65;;;12.80;99.90;;;;;;5069594;28;25062;-73
2021/10/31 10:09:01;;;;;;;8.18;4.20;;;12.80;99.90;;;;;;5049936;28;25152;-74
2021/10/31 10:11:30;;;;;;;5.60;3.63;;;12.80;99.90;;;;;;5049482;28;25061;-75
2021/10/31 10:14:17;;;;;;;5.82;3.90;;;12.80;99.90;;;;;;5071092;28;25080;-72
2021/10/31 10:16:43;;;;;;;4.57;4.00;;;12.80;99.90;;;;;;5067834;28;25062;-77
2021/10/31 10:19:27;;;;;;;7.35;3.67;;;12.80;99.90;;;;;;5071381;28;25075;-78
2021/10/31 10:22:01;;;;;;;3.65;3.30;;;12.80;99.90;;;;;;5068814;28;25092;-76
2021/10/31 10:24:30;;;;;;;6.63;3.17;;;12.80;99.90;;;;;;5073270;28;25134;-73
2021/10/31 10:26:59;;;;;;;5.10;3.47;;;12.90;99.90;;;;;;5072471;28;25062;-75
2021/10/31 10:29:28;;;;;;;4.05;3.00;;;12.90;99.90;;;;;;5072882;28;25100;-73
2021/10/31 10:32:23;;;;;;;3.90;3.10;;;13.00;99.90;;;;;;5058283;28;25074;-76
2021/10/31 10:34:53;;;;;;;7.93;3.20;;;13.00;99.90;;;;;;5075468;28;25089;-76
2021/10/31 10:37:34;;;;;;;4.82;2.83;;;13.10;99.90;;;;;;5074955;28;25071;-75
2021/10/31 10:40:03;;;;;;;9.90;3.70;;;13.10;99.90;;;;;;5073562;28;25071;-74
2021/10/31 10:42:31;;;;;;;2.65;2.45;;;13.00;99.90;;;;;;5069017;28;25120;-78
2021/10/31 10:45:03;;;;;;;3.20;2.58;;;13.00;99.90;;;;;;5074614;28;25136;-74
2021/10/31 10:47:31;;;;;;;3.40;2.08;;;13.00;99.90;;;;;;5057822;28;25052;-75
2021/10/31 10:49:58;;;;;;;6.90;2.45;;;13.00;99.90;;;;;;5075059;28;25063;-78
2021/10/31 10:52:37;;;;;;;4.90;2.42;;;13.00;99.90;;;;;;5078134;28;25069;-76
2021/10/31 10:55:12;;;;;;;2.45;2.00;;;13.00;99.90;;;;;;5060110;28;25137;-79
2021/10/31 10:57:41;;;;;;;2.00;1.80;;;13.00;99.90;;;;;;5072228;28;25127;-77
2021/10/31 11:00:10;;;;;;;5.40;2.28;;;13.00;99.90;;;;;;5067181;28;25076;-78
2021/10/31 11:02:37;;;;;;;4.50;2.42;;;13.00;99.90;;;;;;5072206;28;25133;-75
2021/10/31 11:05:10;;;;;;;5.13;2.30;;;13.00;99.90;;;;;;5075044;28;25088;-76
2021/10/31 11:07:40;;;;;;;5.05;2.40;;;13.00;99.90;;;;;;5075062;28;25078;-76
2021/10/31 11:10:12;;;;;;;5.20;2.45;;;13.00;99.90;;;;;;5078655;28;25062;-78
2021/10/31 11:12:40;;;;;;;10.10;2.72;;;13.00;99.90;;;;;;5075589;28;25067;-82
2021/10/31 11:15:08;;;;;;;5.07;2.47;;;12.90;99.90;;;;;;5056832;28;25089;-81
2021/10/31 11:17:42;;;;;;;2.45;2.25;;;12.90;99.90;;;;;;5085864;28;25070;-79
2021/10/31 11:20:19;;;;;;;4.20;2.50;;;12.90;99.90;;;;;;5070364;28;25052;-78
2021/10/31 11:22:49;;;;;;;3.15;2.65;;;12.90;99.90;;;;;;5092726;28;25180;-75
2021/10/31 11:25:18;;;;;;;5.00;2.10;;;12.80;99.90;;;;;;5074870;28;25071;-74
2021/10/31 11:27:45;;;;;;;3.70;2.00;;;12.90;99.90;;;;;;5071949;28;25066;-75
2021/10/31 11:30:13;;;;;;;3.03;2.28;;;12.90;99.90;;;;;;5073864;28;25079;-74
2021/10/31 11:32:40;;;;;;;2.97;1.95;;;12.90;99.90;;;;;;5072315;28;25118;-77
2021/10/31 11:35:08;;;;;;;4.03;1.60;;;12.90;99.90;;;;;;5073896;28;25083;-81
2021/10/31 11:37:42;;;;;;;3.35;1.73;;;13.00;99.90;;;;;;5074672;28;25145;-75
2021/10/31 11:40:11;;;;;;;2.90;1.58;;;13.00;99.90;;;;;;5077262;28;25069;-78
2021/10/31 11:42:44;;;;;;;2.45;1.50;;;13.10;99.90;;;;;;5072142;28;25069;-77
2021/10/31 11:45:18;;;;;;;2.30;1.77;;;13.10;99.90;;;;;;5079434;28;25111;-76
2021/10/31 11:48:08;;;;;;;3.92;1.58;;;13.10;99.90;;;;;;5083980;28;25158;-77
2021/10/31 11:50:34;;;;;;;2.85;1.20;;;13.10;99.90;;;;;;5058987;28;25099;-77
2021/10/31 11:53:01;;;;;;;6.25;2.00;;;13.20;99.90;;;;;;5080073;28;25054;-78
2021/10/31 11:55:30;;;;;;;4.55;1.60;;;13.20;99.90;;;;;;5078458;28;25087;-78
2021/10/31 11:58:20;;;;;;;4.30;1.60;;;13.20;99.90;;;;;;5059264;28;25058;-76
2021/10/31 12:00:55;;;;;;;2.58;1.52;;;13.20;99.90;;;;;;5078813;28;25091;-76
2021/10/31 12:03:46;;;;;;;2.88;1.80;;;13.20;99.90;;;;;;5073622;28;25071;-77
2021/10/31 12:06:16;;;;;;;2.28;1.15;;;13.20;99.90;;;;;;5082399;28;25074;-75
2021/10/31 12:08:57;;;;;;;3.38;1.75;;;13.30;99.90;;;;;;5090177;28;25051;-78
2021/10/31 12:11:32;;;;;;;2.10;1.52;;;13.30;99.90;;;;;;5078632;28;25069;-74
2021/10/31 12:14:00;;;;;;;3.75;1.40;;;13.40;99.90;;;;;;5074108;28;25048;-77
2021/10/31 12:16:26;;;;;;;4.28;1.77;;;13.40;99.90;;;;;;5051832;28;25060;-78
2021/10/31 12:19:14;;;;;;;2.03;1.30;;;13.40;99.90;;;;;;5083548;28;25085;-78
2021/10/31 12:21:41;;;;;;;2.55;1.52;;;13.40;99.90;;;;;;5087010;28;25071;-77
2021/10/31 12:24:11;;;;;;;2.13;1.48;;;13.50;99.90;;;;;;5073907;28;25047;-79
2021/10/31 12:26:50;;;;;;;4.15;2.00;;;13.40;99.90;;;;;;5075845;28;25067;-77
2021/10/31 12:29:22;;;;;;;4.32;1.70;;;13.40;99.90;;;;;;5080327;28;25067;-75
2021/10/31 12:32:22;;;;;;;7.22;1.92;;;13.40;99.90;;;;;;5081097;28;25057;-77
2021/10/31 12:34:51;;;;;;;3.10;1.70;;;13.40;99.90;;;;;;5082795;28;25094;-79
2021/10/31 12:37:26;;;;;;;2.97;1.88;;;13.50;99.90;;;;;;5077890;28;25052;-77
2021/10/31 12:40:05;;;;;;;4.50;1.95;;;13.50;99.90;;;;;;5075327;28;25080;-75
2021/10/31 12:42:31;;;;;;;5.03;2.17;;;13.50;99.90;;;;;;5057968;28;25080;-81
2021/10/31 12:45:19;;;;;;;2.92;1.88;;;13.50;99.90;;;;;;5073315;28;25121;-79
2021/10/31 12:47:55;;;;;;;3.78;2.22;;;13.50;99.90;;;;;;5079351;28;25088;-79